createdAt,value
2018-02-11T00:00:13.731Z,13.60
2018-02-11T00:00:53.444Z,13.30
2018-02-11T00:01:30.951Z,13.70
2018-02-11T00:02:08.062Z,12.70
2018-02-11T00:02:46.375Z,9.60
2018-02-11T00:03:21.655Z,9.80
2018-02-11T00:03:57.166Z,10.10
2018-02-11T00:04:32.946Z,10.10
2018-02-11T00:05:08.360Z,10.70
2018-02-11T00:05:45.745Z,11.20
2018-02-11T00:06:22.056Z,12.50
2018-02-11T00:06:57.278Z,10.70
2018-02-11T00:07:32.489Z,10.30
2018-02-11T00:08:07.684Z,9.70
2018-02-11T00:08:43.296Z,11.80
2018-02-11T00:09:18.512Z,13.50
2018-02-11T00:09:54.100Z,12.10
2018-02-11T00:10:30.515Z,13.10
2018-02-11T00:11:07.096Z,11.20
2018-02-11T00:11:43.018Z,10.70
2018-02-11T00:12:20.936Z,13.30
2018-02-11T00:12:56.245Z,13.40
2018-02-11T00:13:31.434Z,12.80
2018-02-11T00:14:06.846Z,11.90
2018-02-11T00:14:42.421Z,11.50
2018-02-11T00:15:17.974Z,13.80
2018-02-11T00:15:53.388Z,14.80
2018-02-11T00:16:28.485Z,13.10
2018-02-11T00:17:03.812Z,13.70
2018-02-11T00:17:39.239Z,12.90
2018-02-11T00:18:14.553Z,12.30
2018-02-11T00:18:50.141Z,11.00
2018-02-11T00:19:25.364Z,11.70
2018-02-11T00:20:00.659Z,9.60
2018-02-11T00:20:36.884Z,10.40
2018-02-11T00:21:12.204Z,15.40
2018-02-11T00:21:47.496Z,14.90
2018-02-11T00:22:23.010Z,10.30
2018-02-11T00:22:58.547Z,10.20
2018-02-11T00:23:34.069Z,12.50
2018-02-11T00:24:09.276Z,11.50
2018-02-11T00:24:46.607Z,8.80
2018-02-11T00:25:21.804Z,12.00
2018-02-11T00:25:57.238Z,13.90
2018-02-11T00:26:32.432Z,14.00
2018-02-11T00:27:07.877Z,11.70
2018-02-11T00:27:43.007Z,10.60
2018-02-11T00:28:18.232Z,10.50
2018-02-11T00:28:53.963Z,12.40
2018-02-11T00:29:29.257Z,12.20
2018-02-11T00:30:04.813Z,9.50
2018-02-11T00:30:42.115Z,10.20
2018-02-11T00:31:17.535Z,12.40
2018-02-11T00:31:54.446Z,14.20
2018-02-11T00:32:30.586Z,14.80
2018-02-11T00:33:05.433Z,13.30
2018-02-11T00:33:40.888Z,12.20
2018-02-11T00:34:17.424Z,12.70
2018-02-11T00:34:54.324Z,10.30
2018-02-11T00:35:29.543Z,10.70
2018-02-11T00:36:05.041Z,11.70
2018-02-11T00:36:42.778Z,10.80
2018-02-11T00:37:18.579Z,12.00
2018-02-11T00:37:53.906Z,13.80
2018-02-11T00:38:29.505Z,13.60
2018-02-11T00:39:04.668Z,13.70
2018-02-11T00:39:40.094Z,14.50
2018-02-11T00:40:15.390Z,13.60
2018-02-11T00:40:55.920Z,11.80
2018-02-11T00:41:31.220Z,12.20
2018-02-11T00:42:06.751Z,11.80
2018-02-11T00:42:43.452Z,14.00
2018-02-11T00:43:18.779Z,11.70
2018-02-11T00:43:54.080Z,11.90
2018-02-11T00:44:29.455Z,12.50
2018-02-11T00:45:04.883Z,10.50
2018-02-11T00:45:44.187Z,13.00
2018-02-11T00:46:19.827Z,11.30
2018-02-11T00:46:55.236Z,10.00
2018-02-11T00:47:30.259Z,10.70
2018-02-11T00:48:05.863Z,10.40
2018-02-11T00:48:41.188Z,11.00
2018-02-11T00:49:16.284Z,12.60
2018-02-11T00:49:51.643Z,10.70
2018-02-11T00:50:26.968Z,10.90
2018-02-11T00:51:02.168Z,11.10
2018-02-11T00:51:37.292Z,10.70
2018-02-11T00:52:12.686Z,10.70
2018-02-11T00:52:48.023Z,9.50
2018-02-11T00:53:23.319Z,10.50
2018-02-11T00:53:58.643Z,13.40
2018-02-11T00:54:33.844Z,12.30
2018-02-11T00:55:09.102Z,15.50
2018-02-11T00:55:46.198Z,12.90
2018-02-11T00:56:21.232Z,9.10
2018-02-11T00:56:56.967Z,10.30
2018-02-11T00:57:32.364Z,10.70
2018-02-11T00:58:07.997Z,9.30
2018-02-11T00:58:43.202Z,10.60
2018-02-11T00:59:18.524Z,10.30
2018-02-11T00:59:53.927Z,9.70
2018-02-11T01:00:29.679Z,12.70
2018-02-11T01:01:04.984Z,15.60
2018-02-11T01:01:40.205Z,13.30
2018-02-11T01:02:15.419Z,12.80
2018-02-11T01:02:50.605Z,14.90
2018-02-11T01:03:25.917Z,12.70
2018-02-11T01:04:01.198Z,10.60
2018-02-11T01:04:36.626Z,9.30
2018-02-11T01:05:11.898Z,12.40
2018-02-11T01:05:50.835Z,13.70
2018-02-11T01:06:26.127Z,11.40
2018-02-11T01:07:01.225Z,10.20
2018-02-11T01:07:37.033Z,8.10
2018-02-11T01:08:12.302Z,11.30
2018-02-11T01:08:48.740Z,11.60
2018-02-11T01:09:24.109Z,10.00
2018-02-11T01:09:59.406Z,13.50
2018-02-11T01:10:34.702Z,14.30
2018-02-11T01:11:10.328Z,16.50
2018-02-11T01:11:47.517Z,15.00
2018-02-11T01:12:23.113Z,15.00
2018-02-11T01:12:58.259Z,10.90
2018-02-11T01:13:33.451Z,10.80
2018-02-11T01:14:08.665Z,11.60
2018-02-11T01:14:44.052Z,11.50
2018-02-11T01:15:19.260Z,13.30
2018-02-11T01:15:55.551Z,11.90
2018-02-11T01:16:30.995Z,13.20
2018-02-11T01:17:06.270Z,15.30
2018-02-11T01:17:41.772Z,13.60
2018-02-11T01:18:17.071Z,12.00
2018-02-11T01:18:52.788Z,13.00
2018-02-11T01:19:28.164Z,11.30
2018-02-11T01:20:03.894Z,13.40
2018-02-11T01:20:40.614Z,12.10
2018-02-11T01:21:16.011Z,13.50
2018-02-11T01:21:51.453Z,13.70
2018-02-11T01:22:26.734Z,10.30
2018-02-11T01:23:01.939Z,7.80
2018-02-11T01:23:37.618Z,9.70
2018-02-11T01:24:12.938Z,11.30
2018-02-11T01:24:48.404Z,9.20
2018-02-11T01:25:23.614Z,12.00
2018-02-11T01:26:00.323Z,13.50
2018-02-11T01:26:36.319Z,14.60
2018-02-11T01:27:11.660Z,12.40
2018-02-11T01:27:47.462Z,15.90
2018-02-11T01:28:22.575Z,11.80
2018-02-11T01:28:57.746Z,11.20
2018-02-11T01:29:33.058Z,10.60
2018-02-11T01:30:08.541Z,11.50
2018-02-11T01:30:49.741Z,13.40
2018-02-11T01:31:25.061Z,14.40
2018-02-11T01:32:00.340Z,15.40
2018-02-11T01:32:35.866Z,15.00
2018-02-11T01:33:11.253Z,14.00
2018-02-11T01:33:49.962Z,11.80
2018-02-11T01:34:27.643Z,13.20
2018-02-11T01:35:04.673Z,14.00
2018-02-11T01:35:40.801Z,15.70
2018-02-11T01:36:16.395Z,14.30
2018-02-11T01:36:52.714Z,11.50
2018-02-11T01:37:27.996Z,14.10
2018-02-11T01:38:03.241Z,13.40
2018-02-11T01:38:40.326Z,12.30
2018-02-11T01:39:15.546Z,13.40
2018-02-11T01:39:51.148Z,13.10
2018-02-11T01:40:26.444Z,15.50
2018-02-11T01:41:01.639Z,15.90
2018-02-11T01:41:37.139Z,12.70
2018-02-11T01:42:12.616Z,11.70
2018-02-11T01:42:49.138Z,12.50
2018-02-11T01:43:24.383Z,12.20
2018-02-11T01:43:59.463Z,9.50
2018-02-11T01:44:36.390Z,13.40
2018-02-11T01:45:13.981Z,11.30
2018-02-11T01:45:49.696Z,12.80
2018-02-11T01:46:25.087Z,15.40
2018-02-11T01:47:00.198Z,13.00
2018-02-11T01:47:35.515Z,12.50
2018-02-11T01:48:10.808Z,13.80
2018-02-11T01:48:47.563Z,12.40
2018-02-11T01:49:22.862Z,11.00
2018-02-11T01:49:58.178Z,12.30
2018-02-11T01:50:33.262Z,14.00
2018-02-11T01:51:09.476Z,15.20
2018-02-11T01:51:45.045Z,16.70
2018-02-11T01:52:20.656Z,15.20
2018-02-11T01:52:55.977Z,14.80
2018-02-11T01:53:31.474Z,13.20
2018-02-11T01:54:07.409Z,12.40
2018-02-11T01:54:43.812Z,13.70
2018-02-11T01:55:19.224Z,12.30
2018-02-11T01:55:54.607Z,15.30
2018-02-11T01:56:29.923Z,12.40
2018-02-11T01:57:04.921Z,13.10
2018-02-11T01:57:40.248Z,15.80
2018-02-11T01:58:15.542Z,15.00
2018-02-11T01:58:51.161Z,14.90
2018-02-11T01:59:26.479Z,12.60
2018-02-11T02:00:02.204Z,14.60
2018-02-11T02:00:40.337Z,16.20
2018-02-11T02:01:18.818Z,15.20
2018-02-11T02:01:54.417Z,15.30
2018-02-11T02:02:29.600Z,15.10
2018-02-11T02:03:06.035Z,15.80
2018-02-11T02:03:41.203Z,15.60
2018-02-11T02:04:16.531Z,16.90
2018-02-11T02:04:52.164Z,16.40
2018-02-11T02:05:29.273Z,17.60
2018-02-11T02:06:04.916Z,16.60
2018-02-11T02:06:42.811Z,17.60
2018-02-11T02:07:19.831Z,19.60
2018-02-11T02:07:56.818Z,15.60
2018-02-11T02:08:32.334Z,13.30
2018-02-11T02:09:07.827Z,12.30
2018-02-11T02:09:43.658Z,14.90
2018-02-11T02:10:18.982Z,16.30
2018-02-11T02:10:56.790Z,15.70
2018-02-11T02:11:32.217Z,15.90
2018-02-11T02:12:07.725Z,16.70
2018-02-11T02:12:43.132Z,16.20
2018-02-11T02:13:18.242Z,12.70
2018-02-11T02:13:53.568Z,16.70
2018-02-11T02:14:28.751Z,17.00
2018-02-11T02:15:03.948Z,14.40
2018-02-11T02:15:40.077Z,20.10
2018-02-11T02:16:15.699Z,18.80
2018-02-11T02:16:51.516Z,17.50
2018-02-11T02:17:26.911Z,17.30
2018-02-11T02:18:02.334Z,12.50
2018-02-11T02:18:38.936Z,12.40
2018-02-11T02:19:14.531Z,14.20
2018-02-11T02:19:49.826Z,13.40
2018-02-11T02:20:24.950Z,18.20
2018-02-11T02:21:03.751Z,19.30
2018-02-11T02:21:39.076Z,13.90
2018-02-11T02:22:14.207Z,12.60
2018-02-11T02:22:49.598Z,14.70
2018-02-11T02:23:24.809Z,17.90
2018-02-11T02:24:00.213Z,17.20
2018-02-11T02:24:35.230Z,16.80
2018-02-11T02:25:10.530Z,13.90
2018-02-11T02:25:45.847Z,13.00
2018-02-11T02:26:21.153Z,16.30
2018-02-11T02:26:56.675Z,17.70
2018-02-11T02:27:31.869Z,14.90
2018-02-11T02:28:07.201Z,13.90
2018-02-11T02:28:44.786Z,15.00
2018-02-11T02:29:20.307Z,14.40
2018-02-11T02:29:55.539Z,14.70
2018-02-11T02:30:31.013Z,16.80
2018-02-11T02:31:06.448Z,18.30
2018-02-11T02:31:41.548Z,17.30
2018-02-11T02:32:16.858Z,18.90
2018-02-11T02:32:52.369Z,14.40
2018-02-11T02:33:27.678Z,13.30
2018-02-11T02:34:03.076Z,16.10
2018-02-11T02:34:39.406Z,18.00
2018-02-11T02:35:15.062Z,17.50
2018-02-11T02:35:50.362Z,15.10
2018-02-11T02:36:25.681Z,15.10
2018-02-11T02:37:01.185Z,15.90
2018-02-11T02:37:36.699Z,17.10
2018-02-11T02:38:11.899Z,16.10
2018-02-11T02:38:47.009Z,16.80
2018-02-11T02:39:22.199Z,19.60
2018-02-11T02:39:57.918Z,14.40
2018-02-11T02:40:33.109Z,13.30
2018-02-11T02:41:08.424Z,14.30
2018-02-11T02:41:43.663Z,18.30
2018-02-11T02:42:18.943Z,19.50
2018-02-11T02:42:57.058Z,17.00
2018-02-11T02:43:32.433Z,19.40
2018-02-11T02:44:07.940Z,17.30
2018-02-11T02:44:43.516Z,18.10
2018-02-11T02:45:19.645Z,13.60
2018-02-11T02:45:54.919Z,16.00
2018-02-11T02:46:30.144Z,20.00
2018-02-11T02:47:05.544Z,18.30
2018-02-11T02:47:41.137Z,18.20
2018-02-11T02:48:16.649Z,15.90
2018-02-11T02:48:52.224Z,17.20
2018-02-11T02:49:27.340Z,15.50
2018-02-11T02:50:02.508Z,15.80
2018-02-11T02:50:40.457Z,19.90
2018-02-11T02:51:17.751Z,17.20
2018-02-11T02:51:53.263Z,17.40
2018-02-11T02:52:28.645Z,19.70
2018-02-11T02:53:04.263Z,17.70
2018-02-11T02:53:39.784Z,17.10
2018-02-11T02:54:14.870Z,17.70
2018-02-11T02:54:50.396Z,18.80
2018-02-11T02:55:25.663Z,16.40
2018-02-11T02:56:00.965Z,14.00
2018-02-11T02:56:36.465Z,17.80
2018-02-11T02:57:11.965Z,20.00
2018-02-11T02:57:47.660Z,17.00
2018-02-11T02:58:22.936Z,14.90
2018-02-11T02:58:58.241Z,14.60
2018-02-11T02:59:33.410Z,16.00
2018-02-11T03:00:08.512Z,16.50
2018-02-11T03:00:48.078Z,14.80
2018-02-11T03:01:23.378Z,16.40
2018-02-11T03:01:59.277Z,14.40
2018-02-11T03:02:34.675Z,16.80
2018-02-11T03:03:09.947Z,14.10
2018-02-11T03:03:45.650Z,12.10
2018-02-11T03:04:20.763Z,12.40
2018-02-11T03:04:56.147Z,14.70
2018-02-11T03:05:31.381Z,17.90
2018-02-11T03:06:06.475Z,14.70
2018-02-11T03:06:41.911Z,13.60
2018-02-11T03:07:17.401Z,14.80
2018-02-11T03:07:53.405Z,18.60
2018-02-11T03:08:28.789Z,15.00
2018-02-11T03:09:04.099Z,10.70
2018-02-11T03:09:39.686Z,14.00
2018-02-11T03:10:15.098Z,19.30
2018-02-11T03:10:50.521Z,19.00
2018-02-11T03:11:26.094Z,15.90
2018-02-11T03:12:01.623Z,14.00
2018-02-11T03:12:36.908Z,19.40
2018-02-11T03:13:12.719Z,18.10
2018-02-11T03:13:48.403Z,21.10
2018-02-11T03:14:23.610Z,16.20
2018-02-11T03:14:58.679Z,14.60
2018-02-11T03:15:33.979Z,15.00
2018-02-11T03:16:09.355Z,15.40
2018-02-11T03:16:44.488Z,14.10
2018-02-11T03:17:20.004Z,16.90
2018-02-11T03:17:55.186Z,20.70
2018-02-11T03:18:30.287Z,17.60
2018-02-11T03:19:05.875Z,13.40
2018-02-11T03:19:41.274Z,12.50
2018-02-11T03:20:16.466Z,13.00
2018-02-11T03:20:51.574Z,13.10
2018-02-11T03:21:27.058Z,13.10
2018-02-11T03:22:02.408Z,12.50
2018-02-11T03:22:37.681Z,12.70
2018-02-11T03:23:12.911Z,13.00
2018-02-11T03:23:48.426Z,15.10
2018-02-11T03:24:24.313Z,16.60
2018-02-11T03:24:59.524Z,16.70
2018-02-11T03:25:34.699Z,15.70
2018-02-11T03:26:10.928Z,13.40
2018-02-11T03:26:46.237Z,12.70
2018-02-11T03:27:21.664Z,14.80
2018-02-11T03:28:00.743Z,13.50
2018-02-11T03:28:36.211Z,12.50
2018-02-11T03:29:11.592Z,14.20
2018-02-11T03:29:48.288Z,12.80
2018-02-11T03:30:23.704Z,14.90
2018-02-11T03:30:58.978Z,14.60
2018-02-11T03:31:34.466Z,16.90
2018-02-11T03:32:10.481Z,16.40
2018-02-11T03:32:45.899Z,13.10
2018-02-11T03:33:21.107Z,14.50
2018-02-11T03:33:57.011Z,16.60
2018-02-11T03:34:32.449Z,13.70
2018-02-11T03:35:07.815Z,10.30
2018-02-11T03:35:43.448Z,12.40
2018-02-11T03:36:18.935Z,15.90
2018-02-11T03:36:54.280Z,14.50
2018-02-11T03:37:30.952Z,13.70
2018-02-11T03:38:06.250Z,15.10
2018-02-11T03:38:42.338Z,15.30
2018-02-11T03:39:18.048Z,11.90
2018-02-11T03:39:53.041Z,11.90
2018-02-11T03:40:28.243Z,15.60
2018-02-11T03:41:03.666Z,16.00
2018-02-11T03:41:38.867Z,12.60
2018-02-11T03:42:14.192Z,12.70
2018-02-11T03:42:49.382Z,13.00
2018-02-11T03:43:24.997Z,15.40
2018-02-11T03:44:00.107Z,14.50
2018-02-11T03:44:35.521Z,16.10
2018-02-11T03:45:11.118Z,17.40
2018-02-11T03:45:46.731Z,12.30
2018-02-11T03:46:22.103Z,10.20
2018-02-11T03:46:57.332Z,10.50
2018-02-11T03:47:33.040Z,11.80
2018-02-11T03:48:09.114Z,14.60
2018-02-11T03:48:44.711Z,14.90
2018-02-11T03:49:20.002Z,14.60
2018-02-11T03:49:55.225Z,11.70
2018-02-11T03:50:30.622Z,12.20
2018-02-11T03:51:06.640Z,15.00
2018-02-11T03:51:42.140Z,13.40
2018-02-11T03:52:17.383Z,13.70
2018-02-11T03:52:52.611Z,11.30
2018-02-11T03:53:28.010Z,14.40
2018-02-11T03:54:03.131Z,14.70
2018-02-11T03:54:38.831Z,11.70
2018-02-11T03:55:14.556Z,13.30
2018-02-11T03:55:50.353Z,17.50
2018-02-11T03:56:25.779Z,15.20
2018-02-11T03:57:01.160Z,12.40
2018-02-11T03:57:36.891Z,12.60
2018-02-11T03:58:12.073Z,12.20
2018-02-11T03:58:47.774Z,12.10
2018-02-11T03:59:23.289Z,15.30
2018-02-11T03:59:58.660Z,16.00
2018-02-11T04:00:33.964Z,11.90
2018-02-11T04:01:09.150Z,14.90
2018-02-11T04:01:44.852Z,14.30
2018-02-11T04:02:20.152Z,14.30
2018-02-11T04:02:55.555Z,15.50
2018-02-11T04:03:30.626Z,13.30
2018-02-11T04:04:05.828Z,10.20
2018-02-11T04:04:41.112Z,9.90
2018-02-11T04:05:16.518Z,11.70
2018-02-11T04:05:51.823Z,10.20
2018-02-11T04:06:27.200Z,9.80
2018-02-11T04:07:02.501Z,12.70
2018-02-11T04:07:38.098Z,15.00
2018-02-11T04:08:13.499Z,11.40
2018-02-11T04:08:48.777Z,11.40
2018-02-11T04:09:23.979Z,11.30
2018-02-11T04:09:59.552Z,12.60
2018-02-11T04:10:34.864Z,14.70
2018-02-11T04:11:10.239Z,15.50
2018-02-11T04:11:45.242Z,13.10
2018-02-11T04:12:20.772Z,12.80
2018-02-11T04:12:56.148Z,13.10
2018-02-11T04:13:31.465Z,15.00
2018-02-11T04:14:06.735Z,13.20
2018-02-11T04:14:42.150Z,13.50
2018-02-11T04:15:17.347Z,10.90
2018-02-11T04:15:55.872Z,15.60
2018-02-11T04:16:31.054Z,17.20
2018-02-11T04:17:06.664Z,15.40
2018-02-11T04:17:42.417Z,8.80
2018-02-11T04:18:18.116Z,8.60
2018-02-11T04:18:53.327Z,8.40
2018-02-11T04:19:28.702Z,10.80
2018-02-11T04:20:04.210Z,13.90
2018-02-11T04:20:39.796Z,13.20
2018-02-11T04:21:15.410Z,11.00
2018-02-11T04:21:50.705Z,10.80
2018-02-11T04:22:25.952Z,15.50
2018-02-11T04:23:01.358Z,15.10
2018-02-11T04:23:36.637Z,11.30
2018-02-11T04:24:12.259Z,9.40
2018-02-11T04:24:47.740Z,11.40
2018-02-11T04:25:22.946Z,11.10
2018-02-11T04:25:58.252Z,8.10
2018-02-11T04:26:33.464Z,7.30
2018-02-11T04:27:08.868Z,12.00
2018-02-11T04:27:44.000Z,12.80
2018-02-11T04:28:19.283Z,8.70
2018-02-11T04:28:54.589Z,10.50
2018-02-11T04:29:30.105Z,9.80
2018-02-11T04:30:05.478Z,9.70
2018-02-11T04:30:41.778Z,9.40
2018-02-11T04:31:17.081Z,10.50
2018-02-11T04:31:52.283Z,11.10
2018-02-11T04:32:27.495Z,11.40
2018-02-11T04:33:02.907Z,8.90
2018-02-11T04:33:38.114Z,8.50
2018-02-11T04:34:13.332Z,9.60
2018-02-11T04:34:48.904Z,10.60
2018-02-11T04:35:24.204Z,10.10
2018-02-11T04:35:59.532Z,9.70
2018-02-11T04:36:35.138Z,10.60
2018-02-11T04:37:10.752Z,9.30
2018-02-11T04:37:46.265Z,9.70
2018-02-11T04:38:21.880Z,13.40
2018-02-11T04:38:56.976Z,13.60
2018-02-11T04:39:32.290Z,15.30
2018-02-11T04:40:07.579Z,12.90
2018-02-11T04:40:43.283Z,11.60
2018-02-11T04:41:18.557Z,10.40
2018-02-11T04:41:54.196Z,11.30
2018-02-11T04:42:29.493Z,10.20
2018-02-11T04:43:05.633Z,9.00
2018-02-11T04:43:40.952Z,9.30
2018-02-11T04:44:16.340Z,9.80
2018-02-11T04:44:51.870Z,11.80
2018-02-11T04:45:26.865Z,12.00
2018-02-11T04:46:02.979Z,10.80
2018-02-11T04:46:38.498Z,10.00
2018-02-11T04:47:13.770Z,10.00
2018-02-11T04:47:49.119Z,10.10
2018-02-11T04:48:24.414Z,9.80
2018-02-11T04:48:59.637Z,10.80
2018-02-11T04:49:34.825Z,8.20
2018-02-11T04:50:10.147Z,9.50
2018-02-11T04:50:47.061Z,9.40
2018-02-11T04:51:22.262Z,8.90
2018-02-11T04:51:57.363Z,9.30
2018-02-11T04:52:32.783Z,14.50
2018-02-11T04:53:07.893Z,10.40
2018-02-11T04:53:43.207Z,8.90
2018-02-11T04:54:18.513Z,7.50
2018-02-11T04:54:53.905Z,9.20
2018-02-11T04:55:29.211Z,11.10
2018-02-11T04:56:04.888Z,10.20
2018-02-11T04:56:40.121Z,8.90
2018-02-11T04:57:15.409Z,7.20
2018-02-11T04:57:50.651Z,13.60
2018-02-11T04:58:25.940Z,12.70
2018-02-11T04:59:01.342Z,7.70
2018-02-11T04:59:36.448Z,10.00
2018-02-11T05:00:11.925Z,9.70
2018-02-11T05:00:51.230Z,9.40
2018-02-11T05:01:26.620Z,12.30
2018-02-11T05:02:02.021Z,12.80
2018-02-11T05:02:38.399Z,9.20
2018-02-11T05:03:15.238Z,9.60
2018-02-11T05:03:50.530Z,8.40
2018-02-11T05:04:26.041Z,8.60
2018-02-11T05:05:01.143Z,8.90
2018-02-11T05:05:37.465Z,8.90
2018-02-11T05:06:12.762Z,10.60
2018-02-11T05:06:47.989Z,7.40
2018-02-11T05:07:23.502Z,8.70
2018-02-11T05:07:58.826Z,8.80
2018-02-11T05:08:34.436Z,10.60
2018-02-11T05:09:10.036Z,10.50
2018-02-11T05:09:45.628Z,10.60
2018-02-11T05:10:21.124Z,9.30
2018-02-11T05:10:59.236Z,9.20
2018-02-11T05:11:34.835Z,9.90
2018-02-11T05:12:10.233Z,9.80
2018-02-11T05:12:45.564Z,9.20
2018-02-11T05:13:20.865Z,12.80
2018-02-11T05:13:56.172Z,12.10
2018-02-11T05:14:31.354Z,8.40
2018-02-11T05:15:06.665Z,8.10
2018-02-11T05:15:42.447Z,11.60
2018-02-11T05:16:17.756Z,9.90
2018-02-11T05:16:53.461Z,11.50
2018-02-11T05:17:29.078Z,11.40
2018-02-11T05:18:04.620Z,9.60
2018-02-11T05:18:40.118Z,7.90
2018-02-11T05:19:15.234Z,8.70
2018-02-11T05:19:50.730Z,11.30
2018-02-11T05:20:26.232Z,8.80
2018-02-11T05:21:01.723Z,8.70
2018-02-11T05:21:37.630Z,10.40
2018-02-11T05:22:12.919Z,10.40
2018-02-11T05:22:48.632Z,10.50
2018-02-11T05:23:23.950Z,10.50
2018-02-11T05:23:59.251Z,7.50
2018-02-11T05:24:34.489Z,8.90
2018-02-11T05:25:13.077Z,10.10
2018-02-11T05:25:48.378Z,9.20
2018-02-11T05:26:23.948Z,9.00
2018-02-11T05:26:58.975Z,9.40
2018-02-11T05:27:34.173Z,13.30
2018-02-11T05:28:09.529Z,13.20
2018-02-11T05:28:44.927Z,12.60
2018-02-11T05:29:20.126Z,9.60
2018-02-11T05:29:55.432Z,9.90
2018-02-11T05:30:30.815Z,10.90
2018-02-11T05:31:06.148Z,9.90
2018-02-11T05:31:41.435Z,8.80
2018-02-11T05:32:16.847Z,10.20
2018-02-11T05:32:52.228Z,11.50
2018-02-11T05:33:27.981Z,12.10
2018-02-11T05:34:03.155Z,11.00
2018-02-11T05:34:38.384Z,7.70
2018-02-11T05:35:13.979Z,7.70
2018-02-11T05:35:50.794Z,7.40
2018-02-11T05:36:26.026Z,7.80
2018-02-11T05:37:01.513Z,8.20
2018-02-11T05:37:36.845Z,10.10
2018-02-11T05:38:12.235Z,7.70
2018-02-11T05:38:47.480Z,7.30
2018-02-11T05:39:22.765Z,8.40
2018-02-11T05:39:58.187Z,7.40
2018-02-11T05:40:33.377Z,9.30
2018-02-11T05:41:08.899Z,9.30
2018-02-11T05:41:44.284Z,9.20
2018-02-11T05:42:19.709Z,5.80
2018-02-11T05:42:55.027Z,7.00
2018-02-11T05:43:30.252Z,9.90
2018-02-11T05:44:05.654Z,10.60
2018-02-11T05:44:40.928Z,11.40
2018-02-11T05:45:18.237Z,9.40
2018-02-11T05:45:53.717Z,6.90
2018-02-11T05:46:29.120Z,5.80
2018-02-11T05:47:04.723Z,6.90
2018-02-11T05:47:40.143Z,8.50
2018-02-11T05:48:15.236Z,7.30
2018-02-11T05:48:52.173Z,8.00
2018-02-11T05:49:27.482Z,8.50
2018-02-11T05:50:02.592Z,6.90
2018-02-11T05:50:41.349Z,7.60
2018-02-11T05:51:16.592Z,8.30
2018-02-11T05:51:51.909Z,8.10
2018-02-11T05:52:27.082Z,8.90
2018-02-11T05:53:02.409Z,7.80
2018-02-11T05:53:39.031Z,6.70
2018-02-11T05:54:14.248Z,8.70
2018-02-11T05:54:49.659Z,9.80
2018-02-11T05:55:24.840Z,9.30
2018-02-11T05:56:00.052Z,9.70
2018-02-11T05:56:35.336Z,9.40
2018-02-11T05:57:10.648Z,10.20
2018-02-11T05:57:46.742Z,11.10
2018-02-11T05:58:22.196Z,10.40
2018-02-11T05:58:57.523Z,10.70
2018-02-11T05:59:32.850Z,8.40
2018-02-11T06:00:08.167Z,7.30
2018-02-11T06:00:46.658Z,9.30
2018-02-11T06:01:22.074Z,9.10
2018-02-11T06:01:57.373Z,7.70
2018-02-11T06:02:32.689Z,8.10
2018-02-11T06:03:07.888Z,8.10
2018-02-11T06:03:43.334Z,8.20
2018-02-11T06:04:18.631Z,7.80
2018-02-11T06:04:54.058Z,8.00
2018-02-11T06:05:29.360Z,7.60
2018-02-11T06:06:04.891Z,10.20
2018-02-11T06:06:41.322Z,10.80
2018-02-11T06:07:16.614Z,9.90
2018-02-11T06:07:52.237Z,7.60
2018-02-11T06:08:27.537Z,8.10
2018-02-11T06:09:02.881Z,9.90
2018-02-11T06:09:38.384Z,9.30
2018-02-11T06:10:13.811Z,9.30
2018-02-11T06:10:50.510Z,8.20
2018-02-11T06:11:25.831Z,7.90
2018-02-11T06:12:01.258Z,8.10
2018-02-11T06:12:36.461Z,9.20
2018-02-11T06:13:11.785Z,8.50
2018-02-11T06:13:47.115Z,9.90
2018-02-11T06:14:22.336Z,10.20
2018-02-11T06:14:57.742Z,11.40
2018-02-11T06:15:33.655Z,8.90
2018-02-11T06:16:08.951Z,8.80
2018-02-11T06:16:44.174Z,8.30
2018-02-11T06:17:19.576Z,7.60
2018-02-11T06:17:54.999Z,10.10
2018-02-11T06:18:30.229Z,11.00
2018-02-11T06:19:05.457Z,9.80
2018-02-11T06:19:40.775Z,8.50
2018-02-11T06:20:16.073Z,8.80
2018-02-11T06:20:51.997Z,10.20
2018-02-11T06:21:27.195Z,10.20
2018-02-11T06:22:02.526Z,10.00
2018-02-11T06:22:37.831Z,9.00
2018-02-11T06:23:13.056Z,10.90
2018-02-11T06:23:48.246Z,11.80
2018-02-11T06:24:23.594Z,8.10
2018-02-11T06:24:58.921Z,8.40
2018-02-11T06:25:34.827Z,8.00
2018-02-11T06:26:11.746Z,7.20
2018-02-11T06:26:47.137Z,7.50
2018-02-11T06:27:22.558Z,9.40
2018-02-11T06:27:57.953Z,8.80
2018-02-11T06:28:33.376Z,13.30
2018-02-11T06:29:08.701Z,7.50
2018-02-11T06:29:44.228Z,7.70
2018-02-11T06:30:19.730Z,8.00
2018-02-11T06:30:55.160Z,9.20
2018-02-11T06:31:30.592Z,10.50
2018-02-11T06:32:05.891Z,12.50
2018-02-11T06:32:41.015Z,9.00
2018-02-11T06:33:16.011Z,9.90
2018-02-11T06:33:51.235Z,10.00
2018-02-11T06:34:26.661Z,8.50
2018-02-11T06:35:02.190Z,9.40
2018-02-11T06:35:37.992Z,9.50
2018-02-11T06:36:13.420Z,7.90
2018-02-11T06:36:48.842Z,8.50
2018-02-11T06:37:24.049Z,8.50
2018-02-11T06:37:59.682Z,8.70
2018-02-11T06:38:34.886Z,7.60
2018-02-11T06:39:10.336Z,10.50
2018-02-11T06:39:45.738Z,9.40
2018-02-11T06:40:21.255Z,6.90
2018-02-11T06:40:56.709Z,7.20
2018-02-11T06:41:32.237Z,7.80
2018-02-11T06:42:07.736Z,8.20
2018-02-11T06:42:43.963Z,5.70
2018-02-11T06:43:19.487Z,6.40
2018-02-11T06:43:54.891Z,7.00
2018-02-11T06:44:30.636Z,5.30
2018-02-11T06:45:06.349Z,7.10
2018-02-11T06:45:44.776Z,9.20
2018-02-11T06:46:20.373Z,7.40
2018-02-11T06:46:56.003Z,6.30
2018-02-11T06:47:31.397Z,6.50
2018-02-11T06:48:06.622Z,9.40
2018-02-11T06:48:42.146Z,8.40
2018-02-11T06:49:17.378Z,7.80
2018-02-11T06:49:52.518Z,8.60
2018-02-11T06:50:27.814Z,6.30
2018-02-11T06:51:03.041Z,6.20
2018-02-11T06:51:38.545Z,5.80
2018-02-11T06:52:13.771Z,5.50
2018-02-11T06:52:49.368Z,7.00
2018-02-11T06:53:24.785Z,8.10
2018-02-11T06:54:00.092Z,5.90
2018-02-11T06:54:35.143Z,6.00
2018-02-11T06:55:10.394Z,5.70
2018-02-11T06:55:46.637Z,7.90
2018-02-11T06:56:21.680Z,8.60
2018-02-11T06:56:56.989Z,6.50
2018-02-11T06:57:32.426Z,7.20
2018-02-11T06:58:07.722Z,8.20
2018-02-11T06:58:42.847Z,5.90
2018-02-11T06:59:18.178Z,5.50
2018-02-11T06:59:53.595Z,5.70
2018-02-11T07:00:28.894Z,4.90
2018-02-11T07:01:04.111Z,5.20
2018-02-11T07:01:39.542Z,5.40
2018-02-11T07:02:15.039Z,6.20
2018-02-11T07:02:50.268Z,5.30
2018-02-11T07:03:25.269Z,5.20
2018-02-11T07:04:00.494Z,5.50
2018-02-11T07:04:36.021Z,5.90
2018-02-11T07:05:11.236Z,5.80
2018-02-11T07:05:48.142Z,5.50
2018-02-11T07:06:25.657Z,5.60
2018-02-11T07:07:01.257Z,5.90
2018-02-11T07:07:36.581Z,5.50
2018-02-11T07:08:11.877Z,5.70
2018-02-11T07:08:47.590Z,4.90
2018-02-11T07:09:22.942Z,5.00
2018-02-11T07:09:58.642Z,5.10
2018-02-11T07:10:34.067Z,5.00
2018-02-11T07:11:10.065Z,4.70
2018-02-11T07:11:45.417Z,4.80
2018-02-11T07:12:20.617Z,6.30
2018-02-11T07:12:55.964Z,7.20
2018-02-11T07:13:31.095Z,6.40
2018-02-11T07:14:06.415Z,5.10
2018-02-11T07:14:41.866Z,5.50
2018-02-11T07:15:17.355Z,4.90
2018-02-11T07:15:52.782Z,4.70
2018-02-11T07:16:27.981Z,4.60
2018-02-11T07:17:03.205Z,5.30
2018-02-11T07:17:38.403Z,5.10
2018-02-11T07:18:13.925Z,6.90
2018-02-11T07:18:49.164Z,6.70
2018-02-11T07:19:24.864Z,6.10
2018-02-11T07:20:01.088Z,8.80
2018-02-11T07:20:37.823Z,5.10
2018-02-11T07:21:14.364Z,4.60
2018-02-11T07:21:49.749Z,5.30
2018-02-11T07:22:25.388Z,5.90
2018-02-11T07:23:01.781Z,7.20
2018-02-11T07:23:37.450Z,5.60
2018-02-11T07:24:12.762Z,5.70
2018-02-11T07:24:49.326Z,5.70
2018-02-11T07:25:24.829Z,4.40
2018-02-11T07:25:59.988Z,4.60
2018-02-11T07:26:35.515Z,4.60
2018-02-11T07:27:11.486Z,4.10
2018-02-11T07:27:46.511Z,4.40
2018-02-11T07:28:22.087Z,5.00
2018-02-11T07:28:57.963Z,5.70
2018-02-11T07:29:33.201Z,5.00
2018-02-11T07:30:12.818Z,6.20
2018-02-11T07:30:49.398Z,6.00
2018-02-11T07:31:24.657Z,4.60
2018-02-11T07:32:00.247Z,5.20
2018-02-11T07:32:36.932Z,5.10
2018-02-11T07:33:13.244Z,6.50
2018-02-11T07:33:50.088Z,7.80
2018-02-11T07:34:24.819Z,8.70
2018-02-11T07:35:00.043Z,7.00
2018-02-11T07:35:36.654Z,6.70
2018-02-11T07:36:12.332Z,8.00
2018-02-11T07:36:48.038Z,6.50
2018-02-11T07:37:23.251Z,6.10
2018-02-11T07:37:58.843Z,6.10
2018-02-11T07:38:34.448Z,5.30
2018-02-11T07:39:09.826Z,6.10
2018-02-11T07:39:45.353Z,7.70
2018-02-11T07:40:20.737Z,7.80
2018-02-11T07:40:56.551Z,8.10
2018-02-11T07:41:31.725Z,7.20
2018-02-11T07:42:06.827Z,5.30
2018-02-11T07:42:41.834Z,6.10
2018-02-11T07:43:17.106Z,6.70
2018-02-11T07:43:52.412Z,6.40